Sega — WDF8616 — position and weather

sailwx.info

Track history (hours):
 
Tides and Currents Weather Stations Pressure Air Temp Water Temp Dewpoint Dewpoint Depression Visibility Wind Speed Wind Dir Waves Ship Positions

Sega

Owner: MARINEX CONSTRUCTION, INC., CHARLESTON, SC. More information available from US FCC via Universal Licensing System and Coast Guard Vessel Documentation Center.

Last reported at 2017-Nov-16 14:57 UTC. Time now 2017-Nov-17 23:21 UTC.
Position N 32°39' W 079°51'.

Length 21 m; draft 3 m.

Type: Tug. MMSI: 367142070.

Date/timePositionNaut miles runAvg speedWind from/ knotsBaromVisibWave heightAir tempDewpointWater temp
2017-Nov-16 14:57N 32°39' W 079°51'2 4.0
2017-Nov-16 14:30N 32°38' W 079°52'2 4.2
2017-Nov-16 14:01N 32°36' W 079°54'2 4.3
2017-Nov-16 13:31N 32°35' W 079°56'2 4.3
2017-Nov-16 13:00N 32°33' W 079°58'2 4.3
2017-Nov-16 12:31N 32°32' W 079°60'4 4.2
2017-Nov-16 11:29N 32°29' W 080°03'2 4.1
2017-Nov-16 10:59N 32°28' W 080°05'26 3.6
2017-Nov-16 03:38N 32°10' W 080°29'1 3.6
2017-Nov-16 03:24N 32°10' W 080°29'5 3.6
2017-Nov-16 02:08N 32°07' W 080°34'1 3.8
2017-Nov-16 01:55N 32°06' W 080°34'2 3.8
2017-Nov-16 01:27N 32°05' W 080°36'2 3.8
2017-Nov-16 01:00N 32°04' W 080°38'2 3.8
2017-Nov-16 00:30N 32°04' W 080°40'2 3.9
2017-Nov-16 00:00N 32°04' W 080°42'2 3.8
2017-Nov-15 23:30N 32°04' W 080°44'2 3.6
2017-Nov-15 23:00N 32°04' W 080°46'2 3.2
2017-Nov-15 22:30N 32°04' W 080°48'2 4.2
2017-Nov-15 22:00N 32°06' W 080°50'1 2.8
2017-Nov-15 21:30N 32°07' W 080°50'1 1.6
2017-Nov-15 21:00N 32°08' W 080°50'0 0.1
2017-Nov-15 20:30N 32°08' W 080°50'0 0.0
2017-Nov-15 20:00N 32°08' W 080°50'0 0.0
2017-Nov-15 19:30N 32°08' W 080°50'0 0.0
2017-Nov-15 19:00N 32°08' W 080°49'0 0.0
2017-Nov-15 18:30N 32°08' W 080°49'0 0.0
2017-Nov-15 18:00N 32°08' W 080°50'0 0.0
2017-Nov-15 17:30N 32°08' W 080°50'0 0.0
2017-Nov-15 17:00N 32°08' W 080°50'0 0.2
2017-Nov-15 16:30N 32°08' W 080°49'1 2.7
2017-Nov-15 15:59N 32°07' W 080°50'1 2.9
2017-Nov-15 15:30N 32°05' W 080°49'1 1.4
2017-Nov-15 15:00N 32°05' W 080°49'0 0.1
2017-Nov-15 14:30N 32°05' W 080°49'2 4.8
2017-Nov-15 14:00N 32°07' W 080°50'1 2.3
2017-Nov-15 13:30N 32°08' W 080°49'0 0.0
2017-Nov-15 13:00N 32°08' W 080°49'0 0.0
2017-Nov-15 12:30N 32°08' W 080°49'0 0.0
2017-Nov-15 12:00N 32°08' W 080°49'0 0.0
2017-Nov-15 11:31N 32°08' W 080°49'0 0.0
2017-Nov-15 11:00N 32°08' W 080°49'0 0.0
2017-Nov-15 10:31N 32°08' W 080°49'0 0.0
2017-Nov-15 10:01N 32°08' W 080°49'0 0.0
2017-Nov-15 09:31N 32°08' W 080°49'0 0.0
2017-Nov-15 09:01N 32°08' W 080°49'0 0.0
2017-Nov-15 08:30N 32°08' W 080°49'0 0.0
2017-Nov-15 08:00N 32°08' W 080°49'0 0.0
2017-Nov-15 07:31N 32°08' W 080°49'0 0.0
2017-Nov-15 07:01N 32°08' W 080°49'0 0.0
2017-Nov-15 06:30N 32°08' W 080°49'0 0.0
2017-Nov-15 06:01N 32°08' W 080°49'0 0.0
2017-Nov-15 05:30N 32°08' W 080°49'0 0.0
2017-Nov-15 05:01N 32°08' W 080°49'0 0.0
2017-Nov-15 04:31N 32°08' W 080°49'0 0.0
2017-Nov-15 04:00N 32°08' W 080°49'0 0.0
2017-Nov-15 03:31N 32°08' W 080°49'0 0.0
2017-Nov-15 03:00N 32°08' W 080°49'0 0.0
2017-Nov-15 02:30N 32°08' W 080°49'0 0.0
2017-Nov-15 02:00N 32°08' W 080°49'0 0.0
2017-Nov-15 01:31N 32°08' W 080°49'0 0.0
2017-Nov-15 01:00N 32°08' W 080°49'0 0.0
2017-Nov-15 00:30N 32°08' W 080°49'0 0.0
2017-Nov-15 00:00N 32°08' W 080°49'0 0.0
2017-Nov-14 23:30N 32°08' W 080°49'0 0.0
2017-Nov-14 23:00N 32°08' W 080°49'0 0.0
2017-Nov-14 22:31N 32°08' W 080°49'0 0.0
2017-Nov-14 22:00N 32°08' W 080°49'0 0.0
2017-Nov-14 21:30N 32°08' W 080°49'0 0.0
2017-Nov-14 21:00N 32°08' W 080°49'0 0.0
2017-Nov-14 20:31N 32°08' W 080°49'0 0.0
2017-Nov-14 20:00N 32°08' W 080°49'0 0.0
2017-Nov-14 19:31N 32°08' W 080°49'0 0.0
2017-Nov-14 19:00N 32°08' W 080°49'0 0.0
2017-Nov-14 18:31N 32°08' W 080°49'0 0.0
2017-Nov-14 18:00N 32°08' W 080°49'0 0.0
2017-Nov-14 17:30N 32°08' W 080°49'0 0.0
2017-Nov-14 17:00N 32°08' W 080°49'0 0.0
2017-Nov-14 16:30N 32°08' W 080°49'0 0.0
2017-Nov-14 16:00N 32°08' W 080°49'0 0.0
2017-Nov-14 15:31N 32°08' W 080°49'0 0.0
2017-Nov-14 15:00N 32°08' W 080°49'0 0.0
2017-Nov-14 14:31N 32°08' W 080°49'0 0.0
2017-Nov-14 14:00N 32°08' W 080°49'0 0.0
2017-Nov-14 13:30N 32°08' W 080°49'0 0.0
2017-Nov-14 13:00N 32°08' W 080°49'0 0.0
2017-Nov-14 12:30N 32°08' W 080°49'0 0.0
2017-Nov-14 12:00N 32°08' W 080°49'0 0.0
2017-Nov-14 11:30N 32°08' W 080°49'0 0.0
2017-Nov-14 11:00N 32°08' W 080°49'0 0.0
2017-Nov-14 10:31N 32°08' W 080°49'0 0.0
2017-Nov-14 10:01N 32°08' W 080°49'0 0.0
2017-Nov-14 09:31N 32°08' W 080°49'0 0.0
2017-Nov-14 09:00N 32°08' W 080°49'0 0.0
2017-Nov-14 08:31N 32°08' W 080°49'0 0.0
2017-Nov-14 08:00N 32°08' W 080°49'0 0.0
2017-Nov-14 07:31N 32°08' W 080°49'0 0.0
2017-Nov-14 07:00N 32°08' W 080°49'0 0.0
2017-Nov-14 06:30N 32°08' W 080°49'0 0.0
2017-Nov-14 06:00N 32°08' W 080°49'0 0.0
2017-Nov-14 05:30N 32°08' W 080°49'0 0.0
2017-Nov-14 05:01N 32°08' W 080°49'0 0.0
2017-Nov-14 04:30N 32°08' W 080°49'0 0.0
2017-Nov-14 04:01N 32°08' W 080°49'0 0.0
2017-Nov-14 03:31N 32°08' W 080°49'0 0.0
2017-Nov-14 03:00N 32°08' W 080°49'0 0.0
2017-Nov-14 02:30N 32°08' W 080°49'0 0.0
2017-Nov-14 02:01N 32°08' W 080°49'0 0.0
2017-Nov-14 01:30N 32°08' W 080°49'0 0.0
2017-Nov-14 01:01N 32°08' W 080°49'0 0.0
2017-Nov-14 00:31N 32°08' W 080°49'0 0.0
2017-Nov-14 00:00N 32°08' W 080°49'0 0.0
2017-Nov-13 23:30N 32°08' W 080°49'0 0.0
2017-Nov-13 23:01N 32°08' W 080°49'0 0.0
2017-Nov-13 22:30N 32°08' W 080°49'0 0.0
2017-Nov-13 22:00N 32°08' W 080°49'0 0.0
2017-Nov-13 02:00N 32°08' W 080°49'0 0.0
2017-Nov-13 01:30N 32°08' W 080°49'0 0.0
2017-Nov-13 01:00N 32°08' W 080°49'0 0.0
2017-Nov-13 00:31N 32°08' W 080°49'0 0.0
2017-Nov-13 00:01N 32°08' W 080°49'0 0.0
2017-Nov-12 23:30N 32°08' W 080°49'0 0.0
2017-Nov-12 23:00N 32°08' W 080°49'0 0.0
2017-Nov-12 22:31N 32°08' W 080°49'0 0.0
2017-Nov-12 22:00N 32°08' W 080°49'0 0.0
2017-Nov-12 21:30N 32°08' W 080°49'0 0.0
2017-Nov-12 21:01N 32°08' W 080°49'0 0.0
2017-Nov-12 20:30N 32°08' W 080°49'0 0.0
2017-Nov-12 20:01N 32°08' W 080°49'0 0.0
2017-Nov-12 19:30N 32°08' W 080°49'0 0.0
2017-Nov-12 19:00N 32°08' W 080°49'0 0.0
2017-Nov-12 18:30N 32°08' W 080°49'0 0.0
2017-Nov-12 18:01N 32°08' W 080°49'0 0.0
2017-Nov-12 17:31N 32°08' W 080°49'0 0.0
2017-Nov-12 17:00N 32°08' W 080°49'0 0.0
2017-Nov-12 16:31N 32°08' W 080°49'0 0.0
2017-Nov-12 16:01N 32°08' W 080°49'0 0.0
2017-Nov-12 15:30N 32°08' W 080°49'0 0.0
2017-Nov-12 15:00N 32°08' W 080°49'0 0.0
2017-Nov-12 14:31N 32°08' W 080°49'0 0.0
2017-Nov-12 14:00N 32°08' W 080°49'0 0.0
2017-Nov-12 13:30N 32°08' W 080°49'0 0.0
2017-Nov-12 13:01N 32°08' W 080°49'0 0.0
2017-Nov-12 12:30N 32°08' W 080°49'0 0.0
2017-Nov-12 12:01N 32°08' W 080°49'0 0.0
2017-Nov-12 11:31N 32°08' W 080°49'0 0.0
2017-Nov-12 11:01N 32°08' W 080°49'0 0.0
2017-Nov-12 10:30N 32°08' W 080°49'0 0.0
2017-Nov-12 10:01N 32°08' W 080°49'0 0.0
2017-Nov-12 09:30N 32°08' W 080°49'0 0.0
2017-Nov-12 09:00N 32°08' W 080°49'0 0.0
2017-Nov-12 08:31N 32°08' W 080°49'0 0.0
2017-Nov-12 08:01N 32°08' W 080°49'0 0.0
2017-Nov-12 07:31N 32°08' W 080°49'0 0.0
2017-Nov-12 07:01N 32°08' W 080°49'0 0.0
2017-Nov-12 06:30N 32°08' W 080°49'0 0.0
2017-Nov-12 06:00N 32°08' W 080°49'0 0.0
2017-Nov-12 05:31N 32°08' W 080°49'0 0.0
2017-Nov-12 05:00N 32°08' W 080°49'0 0.0
2017-Nov-12 04:30N 32°08' W 080°49'0 0.0
2017-Nov-12 04:01N 32°08' W 080°49'0 0.0
2017-Nov-12 03:30N 32°08' W 080°49'0 0.0
2017-Nov-12 03:00N 32°08' W 080°49'0 0.0
2017-Nov-12 02:31N 32°08' W 080°49'0 0.0
2017-Nov-12 02:00N 32°08' W 080°49'0 0.0
2017-Nov-12 01:31N 32°08' W 080°49'0 0.0
2017-Nov-12 01:00N 32°08' W 080°49'0 0.0
2017-Nov-12 00:30N 32°08' W 080°49'0 0.0
2017-Nov-12 00:00N 32°08' W 080°49'0 0.0
2017-Nov-11 23:31N 32°08' W 080°49'0 0.0
2017-Nov-11 23:00N 32°08' W 080°49'0 0.0
2017-Nov-11 22:31N 32°08' W 080°49'0 0.0
2017-Nov-11 22:00N 32°08' W 080°49'0 0.0
2017-Nov-11 21:31N 32°08' W 080°49'0 0.0
2017-Nov-11 21:00N 32°08' W 080°49'0 0.0
2017-Nov-11 20:30N 32°08' W 080°49'0 0.0
2017-Nov-11 20:00N 32°08' W 080°49'0 0.0
2017-Nov-11 19:31N 32°08' W 080°49'0 0.0
2017-Nov-11 19:00N 32°08' W 080°49'0 0.0
2017-Nov-11 18:31N 32°08' W 080°49'0 0.0
2017-Nov-11 18:00N 32°08' W 080°49'0 0.0
2017-Nov-11 17:30N 32°08' W 080°49'0 0.0
2017-Nov-11 17:01N 32°08' W 080°49'0 0.0
2017-Nov-11 16:31N 32°08' W 080°49'0 0.0
2017-Nov-11 16:00N 32°08' W 080°49'0 0.0
2017-Nov-11 15:31N 32°08' W 080°49'0 0.0
2017-Nov-11 15:01N 32°08' W 080°49'0 0.0
2017-Nov-11 14:31N 32°08' W 080°49'0 0.0
2017-Nov-11 14:00N 32°08' W 080°49'0 0.0
2017-Nov-11 13:30N 32°08' W 080°49'0 0.0
2017-Nov-11 13:00N 32°08' W 080°49'0 0.0
2017-Nov-11 12:31N 32°08' W 080°49'0 0.0
2017-Nov-11 12:01N 32°08' W 080°49'0 0.0
2017-Nov-11 11:31N 32°08' W 080°49'0 0.0
2017-Nov-11 11:00N 32°08' W 080°49'0 0.0
2017-Nov-11 10:31N 32°08' W 080°49'0 0.0
2017-Nov-11 10:00N 32°08' W 080°49'0 0.0
2017-Nov-11 09:31N 32°08' W 080°49'0 0.0
2017-Nov-11 09:01N 32°08' W 080°49'0 0.0
2017-Nov-11 08:31N 32°08' W 080°49'0 0.0
2017-Nov-11 08:01N 32°08' W 080°49'0 0.0
2017-Nov-11 07:30N 32°08' W 080°49'0 0.0
2017-Nov-11 07:00N 32°08' W 080°49'0 0.0
2017-Nov-11 06:30N 32°08' W 080°49'0 0.0
2017-Nov-11 06:00N 32°08' W 080°49'0 0.0
2017-Nov-11 05:31N 32°08' W 080°49'0 0.0
2017-Nov-11 05:01N 32°08' W 080°49'0 0.0
2017-Nov-11 04:31N 32°08' W 080°49'0 0.0
2017-Nov-11 04:00N 32°08' W 080°49'0 0.0
2017-Nov-11 03:31N 32°08' W 080°49'0 0.0
2017-Nov-11 03:00N 32°08' W 080°49'0 0.0
2017-Nov-11 02:30N 32°08' W 080°49'0 0.0
2017-Nov-11 02:01N 32°08' W 080°49'0 0.0
2017-Nov-11 01:31N 32°08' W 080°49'0 0.0
2017-Nov-11 01:00N 32°08' W 080°49'0 0.0
2017-Nov-11 00:31N 32°08' W 080°49'0 0.0
2017-Nov-11 00:01N 32°08' W 080°49'0 0.0
2017-Nov-10 23:30N 32°08' W 080°49'0 0.0
2017-Nov-10 23:01N 32°08' W 080°49'0 0.0
2017-Nov-10 22:30N 32°08' W 080°49'0 0.0
2017-Nov-10 22:00N 32°08' W 080°49'0 0.1
2017-Nov-10 21:31N 32°08' W 080°49'0 0.0
2017-Nov-10 21:00N 32°08' W 080°49'0 0.0
2017-Nov-10 20:30N 32°08' W 080°49'0 0.9
2017-Nov-10 20:00N 32°07' W 080°50'1 2.8
2017-Nov-10 19:30N 32°06' W 080°50'1 3.0
2017-Nov-10 19:01N 32°05' W 080°49'0 0.1
2017-Nov-10 18:31N 32°05' W 080°49'0 0.1
2017-Nov-10 18:01N 32°05' W 080°49'0 0.1
2017-Nov-10 17:31N 32°05' W 080°49'2 3.5
2017-Nov-10 17:00N 32°06' W 080°50'2 3.5
2017-Nov-10 16:30N 32°08' W 080°49'0 0.0
2017-Nov-10 16:01N 32°08' W 080°49'0 0.0
2017-Nov-10 15:30N 32°08' W 080°49'0 0.3
2017-Nov-10 15:00N 32°08' W 080°49'0 0.3
2017-Nov-10 14:31N 32°08' W 080°49'0 0.0
2017-Nov-10 14:00N 32°08' W 080°49'0 0.0
2017-Nov-10 13:30N 32°08' W 080°49'0 0.0
2017-Nov-10 13:01N 32°08' W 080°49'0 0.0
2017-Nov-10 12:29N 32°08' W 080°49'0 0.0
2017-Nov-10 12:01N 32°08' W 080°49'0 0.0
2017-Nov-10 11:30N 32°08' W 080°49'0 0.0
2017-Nov-10 11:00N 32°08' W 080°49'0 0.0
2017-Nov-10 10:31N 32°08' W 080°49'0 0.0
2017-Nov-10 10:00N 32°08' W 080°49'0 0.0
2017-Nov-10 09:30N 32°08' W 080°49'0 0.0
2017-Nov-10 09:00N 32°08' W 080°49'0 0.0
2017-Nov-10 08:30N 32°08' W 080°49'0 0.0
2017-Nov-10 08:00N 32°08' W 080°49'0 0.0
2017-Nov-10 07:31N 32°08' W 080°49'0 0.0
2017-Nov-10 07:01N 32°08' W 080°49'0 0.0
2017-Nov-10 06:31N 32°08' W 080°49'0 0.0
2017-Nov-10 06:01N 32°08' W 080°49'0 0.0
2017-Nov-10 05:30N 32°08' W 080°49'0 0.0
2017-Nov-10 05:01N 32°08' W 080°49'0 0.0
2017-Nov-10 04:31N 32°08' W 080°49'0 0.0
2017-Nov-10 04:00N 32°08' W 080°49'0 0.0
2017-Nov-10 03:31N 32°08' W 080°49'0 0.0
2017-Nov-10 03:01N 32°08' W 080°49'0 0.0
2017-Nov-10 02:31N 32°08' W 080°49'0 0.0
2017-Nov-10 02:00N 32°08' W 080°49'0 0.0
2017-Nov-10 01:31N 32°08' W 080°49'0 0.0
2017-Nov-10 01:01N 32°08' W 080°49'0 0.0
2017-Nov-10 00:31N 32°08' W 080°49'0 0.0
2017-Nov-10 00:01N 32°08' W 080°49'0 0.0
2017-Nov-09 23:31N 32°08' W 080°49'0 0.0
2017-Nov-09 23:00N 32°08' W 080°49'0 0.0
2017-Nov-09 22:31N 32°08' W 080°49'0 0.0
2017-Nov-09 22:00N 32°08' W 080°49'0 0.0
2017-Nov-09 21:30N 32°08' W 080°49'0 0.0
2017-Nov-09 21:01N 32°08' W 080°49'0 0.0
2017-Nov-09 20:31N 32°08' W 080°49'0 0.0
2017-Nov-09 20:00N 32°08' W 080°49'0 0.0
2017-Nov-09 19:31N 32°08' W 080°49'0 0.0
2017-Nov-09 19:01N 32°08' W 080°49'0 0.0
2017-Nov-09 18:31N 32°08' W 080°49'0 0.0
2017-Nov-09 18:00N 32°08' W 080°49'0 0.0
2017-Nov-09 17:30N 32°08' W 080°49'0 0.0
2017-Nov-09 17:00N 32°08' W 080°49'0 0.0
2017-Nov-09 16:31N 32°08' W 080°49'0 0.0
2017-Nov-09 16:01N 32°08' W 080°49'0 0.0
2017-Nov-09 15:31N 32°08' W 080°49'0 0.0
2017-Nov-09 15:01N 32°08' W 080°49'0 0.0
2017-Nov-09 14:30N 32°08' W 080°49'0 0.0
2017-Nov-09 14:01N 32°08' W 080°49'0 0.0
2017-Nov-09 13:30N 32°08' W 080°49'0 0.0
2017-Nov-09 13:01N 32°08' W 080°49'0 0.0
2017-Nov-09 12:31N 32°08' W 080°49'0 0.0
2017-Nov-09 12:00N 32°08' W 080°49'0 0.0
2017-Nov-09 11:30N 32°08' W 080°49'0 0.0
2017-Nov-09 11:01N 32°08' W 080°49'0 0.0
2017-Nov-09 10:30N 32°08' W 080°49'0 0.0
2017-Nov-09 10:01N 32°08' W 080°49'0 0.0
2017-Nov-09 09:30N 32°08' W 080°49'0 0.0
2017-Nov-09 09:01N 32°08' W 080°49'0 0.0
2017-Nov-09 08:31N 32°08' W 080°49'0 0.0
2017-Nov-09 08:00N 32°08' W 080°49'0 0.0
2017-Nov-09 07:30N 32°08' W 080°49'0 0.0
2017-Nov-09 07:01N 32°08' W 080°49'0 0.0
2017-Nov-09 06:30N 32°08' W 080°49'0 0.0
2017-Nov-09 06:00N 32°08' W 080°49'0 0.0
2017-Nov-09 05:30N 32°08' W 080°49'0 0.0
2017-Nov-09 05:01N 32°08' W 080°49'0 0.0
2017-Nov-09 04:30N 32°08' W 080°49'0 0.0
2017-Nov-09 04:01N 32°08' W 080°49'0 0.0
2017-Nov-09 03:30N 32°08' W 080°49'0 0.0
2017-Nov-09 03:01N 32°08' W 080°49'0 0.0
2017-Nov-09 02:31N 32°08' W 080°49'0 0.0
2017-Nov-09 02:01N 32°08' W 080°49'0 0.0
2017-Nov-09 01:30N 32°08' W 080°49'0 0.0
2017-Nov-09 01:00N 32°08' W 080°49'0 0.0
2017-Nov-09 00:31N 32°08' W 080°49'0 0.0
2017-Nov-09 00:00N 32°08' W 080°49'0 0.0
2017-Nov-08 23:31N 32°08' W 080°49'0 0.0
2017-Nov-08 23:01N 32°08' W 080°49'0 1.0
2017-Nov-08 22:30N 32°08' W 080°50'4 7.1
2017-Nov-08 22:00N 32°08' W 080°54'3 5.6
2017-Nov-08 21:30N 32°05' W 080°55'3 6.7
2017-Nov-08 21:01N 32°05' W 080°59'5 9.2
2017-Nov-08 20:31N 32°05' W 081°05'5 9.3
2017-Nov-08 20:01N 32°08' W 081°08'1 2.2
2017-Nov-08 19:31N 32°07' W 081°08'1 2.6
2017-Nov-08 19:00N 32°06' W 081°07'1 2.8
2017-Nov-08 18:31N 32°05' W 081°06'2 3.2
2017-Nov-08 18:00N 32°05' W 081°04'2 3.8
2017-Nov-08 17:31N 32°05' W 081°02'2 3.5
2017-Nov-08 17:01N 32°05' W 080°60'2 3.9
2017-Nov-08 16:30N 32°05' W 080°58'1 2.5
2017-Nov-08 16:00N 32°05' W 080°56'1 2.9
2017-Nov-08 15:30N 32°05' W 080°55'1 2.3
2017-Nov-08 15:00N 32°06' W 080°54'2 3.0
2017-Nov-08 14:30N 32°08' W 080°53'2 4.8
2017-Nov-08 14:00N 32°09' W 080°51'2 3.3
2017-Nov-08 13:31N 32°08' W 080°49'0 0.1
2017-Nov-08 13:01N 32°08' W 080°49'0 0.0
2017-Nov-08 12:31N 32°08' W 080°49'0 0.1
2017-Nov-08 12:00N 32°08' W 080°49'0 0.0
2017-Nov-08 11:31N 32°08' W 080°49'0 0.0
2017-Nov-08 11:00N 32°08' W 080°49'0 0.0
2017-Nov-08 10:31N 32°08' W 080°49'0 0.0
2017-Nov-08 10:00N 32°08' W 080°49'0 0.0
2017-Nov-08 09:31N 32°08' W 080°49'0 0.0
2017-Nov-08 09:00N 32°08' W 080°49'0 0.0
2017-Nov-08 08:30N 32°08' W 080°49'0 0.0
2017-Nov-08 08:00N 32°08' W 080°49'0 0.0
2017-Nov-08 07:31N 32°08' W 080°49'0 0.0
2017-Nov-08 07:00N 32°08' W 080°49'0 0.0
2017-Nov-08 06:30N 32°08' W 080°49'0 0.0
2017-Nov-08 06:00N 32°08' W 080°49'0 0.0
2017-Nov-08 05:30N 32°08' W 080°49'0 0.0
2017-Nov-08 05:00N 32°08' W 080°49'0 0.0
2017-Nov-08 04:30N 32°08' W 080°49'0 0.0
2017-Nov-08 04:01N 32°08' W 080°49'0 0.0
2017-Nov-08 03:30N 32°08' W 080°49'0 0.0
2017-Nov-08 03:01N 32°08' W 080°49'0 0.0
2017-Nov-08 02:30N 32°08' W 080°49'0 0.0
2017-Nov-08 02:00N 32°08' W 080°49'0 0.0
2017-Nov-08 01:30N 32°08' W 080°49'0 0.0
2017-Nov-08 01:01N 32°08' W 080°49'0 0.0
2017-Nov-08 00:30N 32°08' W 080°49'0 0.0
2017-Nov-08 00:00N 32°08' W 080°49'0 0.0
2017-Nov-07 23:31N 32°08' W 080°49'0 0.0
2017-Nov-07 23:00N 32°08' W 080°49'0 0.0
2017-Nov-07 22:31N 32°08' W 080°49'0 0.0
2017-Nov-07 22:00N 32°08' W 080°49'3 6.0
2017-Nov-07 21:30N 32°05' W 080°49'0 0.6
2017-Nov-07 21:01N 32°05' W 080°49'0 0.0
2017-Nov-07 20:30N 32°05' W 080°49'0 0.0
2017-Nov-07 20:00N 32°05' W 080°49'0 0.0
2017-Nov-07 19:31N 32°05' W 080°49'0 0.0
2017-Nov-07 19:00N 32°05' W 080°49'0 0.0
2017-Nov-07 18:31N 32°05' W 080°49'1 1.2
2017-Nov-07 18:00N 32°05' W 080°49'3 5.3
2017-Nov-07 17:30N 32°08' W 080°49'0 0.0
2017-Nov-07 17:00N 32°08' W 080°49'0 0.0
2017-Nov-07 16:31N 32°08' W 080°49'0 0.0
2017-Nov-07 16:00N 32°08' W 080°49'2 3.5
2017-Nov-07 15:30N 32°09' W 080°51'3 6.6
2017-Nov-07 15:00N 32°07' W 080°54'3 6.9
2017-Nov-07 14:30N 32°05' W 080°57'4 7.1
2017-Nov-07 14:01N 32°06' W 081°01'4 7.2
2017-Nov-07 13:30N 32°05' W 081°05'1 2.2
2017-Nov-07 13:00N 32°06' W 081°06'3 7.0
2017-Nov-07 12:31N 32°05' W 081°02'3 6.9
2017-Nov-07 12:01N 32°04' W 080°58'3 5.3
2017-Nov-07 11:30N 32°05' W 080°55'2 4.6
2017-Nov-07 11:01N 32°07' W 080°54'3 5.9
2017-Nov-07 10:31N 32°09' W 080°51'2 2.9
2017-Nov-07 09:51N 32°08' W 080°49'0 0.0
2017-Nov-07 09:30N 32°08' W 080°49'0 0.0
2017-Nov-07 09:00N 32°08' W 080°49'0 0.0
2017-Nov-07 08:30N 32°08' W 080°49'0 0.0
2017-Nov-07 08:01N 32°08' W 080°49'0 0.0
2017-Nov-07 07:30N 32°08' W 080°49'0 0.0
2017-Nov-07 07:00N 32°08' W 080°49'0 0.0
2017-Nov-07 06:31N 32°08' W 080°49'0 0.0
2017-Nov-07 06:00N 32°08' W 080°49'0 0.0
2017-Nov-07 05:31N 32°08' W 080°49'0 0.0
2017-Nov-07 05:00N 32°08' W 080°49'0 0.0
2017-Nov-07 04:30N 32°08' W 080°49'0 0.0
2017-Nov-07 04:00N 32°08' W 080°49'0 0.0
2017-Nov-07 03:30N 32°08' W 080°49'0 0.0
2017-Nov-07 03:00N 32°08' W 080°49'0 0.0
2017-Nov-07 02:29N 32°08' W 080°49'0 0.0
2017-Nov-07 02:01N 32°08' W 080°49'0 0.0
2017-Nov-07 01:30N 32°08' W 080°49'0 0.0
2017-Nov-07 01:00N 32°08' W 080°49'0 0.0
2017-Nov-07 00:30N 32°08' W 080°49'0 0.0
2017-Nov-07 00:01N 32°08' W 080°49'0 0.0
2017-Nov-06 23:30N 32°08' W 080°49'0 0.0
2017-Nov-06 23:00N 32°08' W 080°49'3 5.2
2017-Nov-06 22:31N 32°05' W 080°50'1 1.8
2017-Nov-06 22:00N 32°05' W 080°49'3 5.2
2017-Nov-06 21:30N 32°07' W 080°50'1 1.6
2017-Nov-06 21:01N 32°08' W 080°49'0 0.0
2017-Nov-06 20:30N 32°08' W 080°49'  
Track history (hours):
 
Tides and Currents Weather Stations Pressure Air Temp Water Temp Dewpoint Dewpoint Depression Visibility Wind Speed Wind Dir Waves Ship Positions

Sega

Owner: MARINEX CONSTRUCTION, INC., CHARLESTON, SC. More information available from US FCC via Universal Licensing System and Coast Guard Vessel Documentation Center.

Last reported at 2017-Nov-16 14:57 UTC. Time now 2017-Nov-17 23:21 UTC.
Position N 32°39' W 079°51'.

Length 21 m; draft 3 m.

Type: Tug. MMSI: 367142070.

Date/timePositionNaut miles runAvg speedWind from/ knotsBaromVisibWave heightAir tempDewpointWater temp
2017-Nov-16 14:57N 32°39' W 079°51'2 4.0
2017-Nov-16 14:30N 32°38' W 079°52'2 4.2
2017-Nov-16 14:01N 32°36' W 079°54'2 4.3
2017-Nov-16 13:31N 32°35' W 079°56'2 4.3
2017-Nov-16 13:00N 32°33' W 079°58'2 4.3
2017-Nov-16 12:31N 32°32' W 079°60'4 4.2
2017-Nov-16 11:29N 32°29' W 080°03'2 4.1
2017-Nov-16 10:59N 32°28' W 080°05'26 3.6
2017-Nov-16 03:38N 32°10' W 080°29'1 3.6
2017-Nov-16 03:24N 32°10' W 080°29'5 3.6
2017-Nov-16 02:08N 32°07' W 080°34'1 3.8
2017-Nov-16 01:55N 32°06' W 080°34'2 3.8
2017-Nov-16 01:27N 32°05' W 080°36'2 3.8
2017-Nov-16 01:00N 32°04' W 080°38'2 3.8
2017-Nov-16 00:30N 32°04' W 080°40'2 3.9
2017-Nov-16 00:00N 32°04' W 080°42'2 3.8
2017-Nov-15 23:30N 32°04' W 080°44'2 3.6
2017-Nov-15 23:00N 32°04' W 080°46'2 3.2
2017-Nov-15 22:30N 32°04' W 080°48'2 4.2
2017-Nov-15 22:00N 32°06' W 080°50'1 2.8
2017-Nov-15 21:30N 32°07' W 080°50'1 1.6
2017-Nov-15 21:00N 32°08' W 080°50'0 0.1
2017-Nov-15 20:30N 32°08' W 080°50'0 0.0
2017-Nov-15 20:00N 32°08' W 080°50'0 0.0
2017-Nov-15 19:30N 32°08' W 080°50'0 0.0
2017-Nov-15 19:00N 32°08' W 080°49'0 0.0
2017-Nov-15 18:30N 32°08' W 080°49'0 0.0
2017-Nov-15 18:00N 32°08' W 080°50'0 0.0
2017-Nov-15 17:30N 32°08' W 080°50'0 0.0
2017-Nov-15 17:00N 32°08' W 080°50'0 0.2
2017-Nov-15 16:30N 32°08' W 080°49'1 2.7
2017-Nov-15 15:59N 32°07' W 080°50'1 2.9
2017-Nov-15 15:30N 32°05' W 080°49'1 1.4
2017-Nov-15 15:00N 32°05' W 080°49'0 0.1
2017-Nov-15 14:30N 32°05' W 080°49'2 4.8
2017-Nov-15 14:00N 32°07' W 080°50'1 2.3
2017-Nov-15 13:30N 32°08' W 080°49'0 0.0
2017-Nov-15 13:00N 32°08' W 080°49'0 0.0
2017-Nov-15 12:30N 32°08' W 080°49'0 0.0
2017-Nov-15 12:00N 32°08' W 080°49'0 0.0
2017-Nov-15 11:31N 32°08' W 080°49'0 0.0
2017-Nov-15 11:00N 32°08' W 080°49'0 0.0
2017-Nov-15 10:31N 32°08' W 080°49'0 0.0
2017-Nov-15 10:01N 32°08' W 080°49'0 0.0
2017-Nov-15 09:31N 32°08' W 080°49'0 0.0
2017-Nov-15 09:01N 32°08' W 080°49'0 0.0
2017-Nov-15 08:30N 32°08' W 080°49'0 0.0
2017-Nov-15 08:00N 32°08' W 080°49'0 0.0
2017-Nov-15 07:31N 32°08' W 080°49'0 0.0
2017-Nov-15 07:01N 32°08' W 080°49'0 0.0
2017-Nov-15 06:30N 32°08' W 080°49'0 0.0
2017-Nov-15 06:01N 32°08' W 080°49'0 0.0
2017-Nov-15 05:30N 32°08' W 080°49'0 0.0
2017-Nov-15 05:01N 32°08' W 080°49'0 0.0
2017-Nov-15 04:31N 32°08' W 080°49'0 0.0
2017-Nov-15 04:00N 32°08' W 080°49'0 0.0
2017-Nov-15 03:31N 32°08' W 080°49'0 0.0
2017-Nov-15 03:00N 32°08' W 080°49'0 0.0
2017-Nov-15 02:30N 32°08' W 080°49'0 0.0
2017-Nov-15 02:00N 32°08' W 080°49'0 0.0
2017-Nov-15 01:31N 32°08' W 080°49'0 0.0
2017-Nov-15 01:00N 32°08' W 080°49'0 0.0
2017-Nov-15 00:30N 32°08' W 080°49'0 0.0
2017-Nov-15 00:00N 32°08' W 080°49'0 0.0
2017-Nov-14 23:30N 32°08' W 080°49'0 0.0
2017-Nov-14 23:00N 32°08' W 080°49'0 0.0
2017-Nov-14 22:31N 32°08' W 080°49'0 0.0
2017-Nov-14 22:00N 32°08' W 080°49'0 0.0
2017-Nov-14 21:30N 32°08' W 080°49'0 0.0
2017-Nov-14 21:00N 32°08' W 080°49'0 0.0
2017-Nov-14 20:31N 32°08' W 080°49'0 0.0
2017-Nov-14 20:00N 32°08' W 080°49'0 0.0
2017-Nov-14 19:31N 32°08' W 080°49'0 0.0
2017-Nov-14 19:00N 32°08' W 080°49'0 0.0
2017-Nov-14 18:31N 32°08' W 080°49'0 0.0
2017-Nov-14 18:00N 32°08' W 080°49'0 0.0
2017-Nov-14 17:30N 32°08' W 080°49'0 0.0
2017-Nov-14 17:00N 32°08' W 080°49'0 0.0
2017-Nov-14 16:30N 32°08' W 080°49'0 0.0
2017-Nov-14 16:00N 32°08' W 080°49'0 0.0
2017-Nov-14 15:31N 32°08' W 080°49'0 0.0
2017-Nov-14 15:00N 32°08' W 080°49'0 0.0
2017-Nov-14 14:31N 32°08' W 080°49'0 0.0
2017-Nov-14 14:00N 32°08' W 080°49'0 0.0
2017-Nov-14 13:30N 32°08' W 080°49'0 0.0
2017-Nov-14 13:00N 32°08' W 080°49'0 0.0
2017-Nov-14 12:30N 32°08' W 080°49'0 0.0
2017-Nov-14 12:00N 32°08' W 080°49'0 0.0
2017-Nov-14 11:30N 32°08' W 080°49'0 0.0
2017-Nov-14 11:00N 32°08' W 080°49'0 0.0
2017-Nov-14 10:31N 32°08' W 080°49'0 0.0
2017-Nov-14 10:01N 32°08' W 080°49'0 0.0
2017-Nov-14 09:31N 32°08' W 080°49'0 0.0
2017-Nov-14 09:00N 32°08' W 080°49'0 0.0
2017-Nov-14 08:31N 32°08' W 080°49'0 0.0
2017-Nov-14 08:00N 32°08' W 080°49'0 0.0
2017-Nov-14 07:31N 32°08' W 080°49'0 0.0
2017-Nov-14 07:00N 32°08' W 080°49'0 0.0
2017-Nov-14 06:30N 32°08' W 080°49'0 0.0
2017-Nov-14 06:00N 32°08' W 080°49'0 0.0
2017-Nov-14 05:30N 32°08' W 080°49'0 0.0
2017-Nov-14 05:01N 32°08' W 080°49'0 0.0
2017-Nov-14 04:30N 32°08' W 080°49'0 0.0
2017-Nov-14 04:01N 32°08' W 080°49'0 0.0
2017-Nov-14 03:31N 32°08' W 080°49'0 0.0
2017-Nov-14 03:00N 32°08' W 080°49'0 0.0
2017-Nov-14 02:30N 32°08' W 080°49'0 0.0
2017-Nov-14 02:01N 32°08' W 080°49'0 0.0
2017-Nov-14 01:30N 32°08' W 080°49'0 0.0
2017-Nov-14 01:01N 32°08' W 080°49'0 0.0
2017-Nov-14 00:31N 32°08' W 080°49'0 0.0
2017-Nov-14 00:00N 32°08' W 080°49'0 0.0
2017-Nov-13 23:30N 32°08' W 080°49'0 0.0
2017-Nov-13 23:01N 32°08' W 080°49'0 0.0
2017-Nov-13 22:30N 32°08' W 080°49'0 0.0
2017-Nov-13 22:00N 32°08' W 080°49'0 0.0
2017-Nov-13 02:00N 32°08' W 080°49'0 0.0
2017-Nov-13 01:30N 32°08' W 080°49'0 0.0
2017-Nov-13 01:00N 32°08' W 080°49'0 0.0
2017-Nov-13 00:31N 32°08' W 080°49'0 0.0
2017-Nov-13 00:01N 32°08' W 080°49'0 0.0
2017-Nov-12 23:30N 32°08' W 080°49'0 0.0
2017-Nov-12 23:00N 32°08' W 080°49'0 0.0
2017-Nov-12 22:31N 32°08' W 080°49'0 0.0
2017-Nov-12 22:00N 32°08' W 080°49'0 0.0
2017-Nov-12 21:30N 32°08' W 080°49'0 0.0
2017-Nov-12 21:01N 32°08' W 080°49'0 0.0
2017-Nov-12 20:30N 32°08' W 080°49'0 0.0
2017-Nov-12 20:01N 32°08' W 080°49'0 0.0
2017-Nov-12 19:30N 32°08' W 080°49'0 0.0
2017-Nov-12 19:00N 32°08' W 080°49'0 0.0
2017-Nov-12 18:30N 32°08' W 080°49'0 0.0
2017-Nov-12 18:01N 32°08' W 080°49'0 0.0
2017-Nov-12 17:31N 32°08' W 080°49'0 0.0
2017-Nov-12 17:00N 32°08' W 080°49'0 0.0
2017-Nov-12 16:31N 32°08' W 080°49'0 0.0
2017-Nov-12 16:01N 32°08' W 080°49'0 0.0
2017-Nov-12 15:30N 32°08' W 080°49'0 0.0
2017-Nov-12 15:00N 32°08' W 080°49'0 0.0
2017-Nov-12 14:31N 32°08' W 080°49'0 0.0
2017-Nov-12 14:00N 32°08' W 080°49'0 0.0
2017-Nov-12 13:30N 32°08' W 080°49'0 0.0
2017-Nov-12 13:01N 32°08' W 080°49'0 0.0
2017-Nov-12 12:30N 32°08' W 080°49'0 0.0
2017-Nov-12 12:01N 32°08' W 080°49'0 0.0
2017-Nov-12 11:31N 32°08' W 080°49'0 0.0
2017-Nov-12 11:01N 32°08' W 080°49'0 0.0
2017-Nov-12 10:30N 32°08' W 080°49'0 0.0
2017-Nov-12 10:01N 32°08' W 080°49'0 0.0
2017-Nov-12 09:30N 32°08' W 080°49'0 0.0
2017-Nov-12 09:00N 32°08' W 080°49'0 0.0
2017-Nov-12 08:31N 32°08' W 080°49'0 0.0
2017-Nov-12 08:01N 32°08' W 080°49'0 0.0
2017-Nov-12 07:31N 32°08' W 080°49'0 0.0
2017-Nov-12 07:01N 32°08' W 080°49'0 0.0
2017-Nov-12 06:30N 32°08' W 080°49'0 0.0
2017-Nov-12 06:00N 32°08' W 080°49'0 0.0
2017-Nov-12 05:31N 32°08' W 080°49'0 0.0
2017-Nov-12 05:00N 32°08' W 080°49'0 0.0
2017-Nov-12 04:30N 32°08' W 080°49'0 0.0
2017-Nov-12 04:01N 32°08' W 080°49'0 0.0
2017-Nov-12 03:30N 32°08' W 080°49'0 0.0
2017-Nov-12 03:00N 32°08' W 080°49'0 0.0
2017-Nov-12 02:31N 32°08' W 080°49'0 0.0
2017-Nov-12 02:00N 32°08' W 080°49'0 0.0
2017-Nov-12 01:31N 32°08' W 080°49'0 0.0
2017-Nov-12 01:00N 32°08' W 080°49'0 0.0
2017-Nov-12 00:30N 32°08' W 080°49'0 0.0
2017-Nov-12 00:00N 32°08' W 080°49'0 0.0
2017-Nov-11 23:31N 32°08' W 080°49'0 0.0
2017-Nov-11 23:00N 32°08' W 080°49'0 0.0
2017-Nov-11 22:31N 32°08' W 080°49'0 0.0
2017-Nov-11 22:00N 32°08' W 080°49'0 0.0
2017-Nov-11 21:31N 32°08' W 080°49'0 0.0
2017-Nov-11 21:00N 32°08' W 080°49'0 0.0
2017-Nov-11 20:30N 32°08' W 080°49'0 0.0
2017-Nov-11 20:00N 32°08' W 080°49'0 0.0
2017-Nov-11 19:31N 32°08' W 080°49'0 0.0
2017-Nov-11 19:00N 32°08' W 080°49'0 0.0
2017-Nov-11 18:31N 32°08' W 080°49'0 0.0
2017-Nov-11 18:00N 32°08' W 080°49'0 0.0
2017-Nov-11 17:30N 32°08' W 080°49'0 0.0
2017-Nov-11 17:01N 32°08' W 080°49'0 0.0
2017-Nov-11 16:31N 32°08' W 080°49'0 0.0
2017-Nov-11 16:00N 32°08' W 080°49'0 0.0
2017-Nov-11 15:31N 32°08' W 080°49'0 0.0
2017-Nov-11 15:01N 32°08' W 080°49'0 0.0
2017-Nov-11 14:31N 32°08' W 080°49'0 0.0
2017-Nov-11 14:00N 32°08' W 080°49'0 0.0
2017-Nov-11 13:30N 32°08' W 080°49'0 0.0
2017-Nov-11 13:00N 32°08' W 080°49'0 0.0
2017-Nov-11 12:31N 32°08' W 080°49'0 0.0
2017-Nov-11 12:01N 32°08' W 080°49'0 0.0
2017-Nov-11 11:31N 32°08' W 080°49'0 0.0
2017-Nov-11 11:00N 32°08' W 080°49'0 0.0
2017-Nov-11 10:31N 32°08' W 080°49'0 0.0
2017-Nov-11 10:00N 32°08' W 080°49'0 0.0
2017-Nov-11 09:31N 32°08' W 080°49'0 0.0
2017-Nov-11 09:01N 32°08' W 080°49'0 0.0
2017-Nov-11 08:31N 32°08' W 080°49'0 0.0
2017-Nov-11 08:01N 32°08' W 080°49'0 0.0
2017-Nov-11 07:30N 32°08' W 080°49'0 0.0
2017-Nov-11 07:00N 32°08' W 080°49'0 0.0
2017-Nov-11 06:30N 32°08' W 080°49'0 0.0
2017-Nov-11 06:00N 32°08' W 080°49'0 0.0
2017-Nov-11 05:31N 32°08' W 080°49'0 0.0
2017-Nov-11 05:01N 32°08' W 080°49'0 0.0
2017-Nov-11 04:31N 32°08' W 080°49'0 0.0
2017-Nov-11 04:00N 32°08' W 080°49'0 0.0
2017-Nov-11 03:31N 32°08' W 080°49'0 0.0
2017-Nov-11 03:00N 32°08' W 080°49'0 0.0
2017-Nov-11 02:30N 32°08' W 080°49'0 0.0
2017-Nov-11 02:01N 32°08' W 080°49'0 0.0
2017-Nov-11 01:31N 32°08' W 080°49'0 0.0
2017-Nov-11 01:00N 32°08' W 080°49'0 0.0
2017-Nov-11 00:31N 32°08' W 080°49'0 0.0
2017-Nov-11 00:01N 32°08' W 080°49'0 0.0
2017-Nov-10 23:30N 32°08' W 080°49'0 0.0
2017-Nov-10 23:01N 32°08' W 080°49'0 0.0
2017-Nov-10 22:30N 32°08' W 080°49'0 0.0
2017-Nov-10 22:00N 32°08' W 080°49'0 0.1
2017-Nov-10 21:31N 32°08' W 080°49'0 0.0
2017-Nov-10 21:00N 32°08' W 080°49'0 0.0
2017-Nov-10 20:30N 32°08' W 080°49'0 0.9
2017-Nov-10 20:00N 32°07' W 080°50'1 2.8
2017-Nov-10 19:30N 32°06' W 080°50'1 3.0
2017-Nov-10 19:01N 32°05' W 080°49'0 0.1
2017-Nov-10 18:31N 32°05' W 080°49'0 0.1
2017-Nov-10 18:01N 32°05' W 080°49'0 0.1
2017-Nov-10 17:31N 32°05' W 080°49'2 3.5
2017-Nov-10 17:00N 32°06' W 080°50'2 3.5
2017-Nov-10 16:30N 32°08' W 080°49'0 0.0
2017-Nov-10 16:01N 32°08' W 080°49'0 0.0
2017-Nov-10 15:30N 32°08' W 080°49'0 0.3
2017-Nov-10 15:00N 32°08' W 080°49'0 0.3
2017-Nov-10 14:31N 32°08' W 080°49'0 0.0
2017-Nov-10 14:00N 32°08' W 080°49'0 0.0
2017-Nov-10 13:30N 32°08' W 080°49'0 0.0
2017-Nov-10 13:01N 32°08' W 080°49'0 0.0
2017-Nov-10 12:29N 32°08' W 080°49'0 0.0
2017-Nov-10 12:01N 32°08' W 080°49'0 0.0
2017-Nov-10 11:30N 32°08' W 080°49'0 0.0
2017-Nov-10 11:00N 32°08' W 080°49'0 0.0
2017-Nov-10 10:31N 32°08' W 080°49'0 0.0
2017-Nov-10 10:00N 32°08' W 080°49'0 0.0
2017-Nov-10 09:30N 32°08' W 080°49'0 0.0
2017-Nov-10 09:00N 32°08' W 080°49'0 0.0
2017-Nov-10 08:30N 32°08' W 080°49'0 0.0
2017-Nov-10 08:00N 32°08' W 080°49'0 0.0
2017-Nov-10 07:31N 32°08' W 080°49'0 0.0
2017-Nov-10 07:01N 32°08' W 080°49'0 0.0
2017-Nov-10 06:31N 32°08' W 080°49'0 0.0
2017-Nov-10 06:01N 32°08' W 080°49'0 0.0
2017-Nov-10 05:30N 32°08' W 080°49'0 0.0
2017-Nov-10 05:01N 32°08' W 080°49'0 0.0
2017-Nov-10 04:31N 32°08' W 080°49'0 0.0
2017-Nov-10 04:00N 32°08' W 080°49'0 0.0
2017-Nov-10 03:31N 32°08' W 080°49'0 0.0
2017-Nov-10 03:01N 32°08' W 080°49'0 0.0
2017-Nov-10 02:31N 32°08' W 080°49'0 0.0
2017-Nov-10 02:00N 32°08' W 080°49'0 0.0
2017-Nov-10 01:31N 32°08' W 080°49'0 0.0
2017-Nov-10 01:01N 32°08' W 080°49'0 0.0
2017-Nov-10 00:31N 32°08' W 080°49'0 0.0
2017-Nov-10 00:01N 32°08' W 080°49'0 0.0
2017-Nov-09 23:31N 32°08' W 080°49'0 0.0
2017-Nov-09 23:00N 32°08' W 080°49'0 0.0
2017-Nov-09 22:31N 32°08' W 080°49'0 0.0
2017-Nov-09 22:00N 32°08' W 080°49'0 0.0
2017-Nov-09 21:30N 32°08' W 080°49'0 0.0
2017-Nov-09 21:01N 32°08' W 080°49'0 0.0
2017-Nov-09 20:31N 32°08' W 080°49'0 0.0
2017-Nov-09 20:00N 32°08' W 080°49'0 0.0
2017-Nov-09 19:31N 32°08' W 080°49'0 0.0
2017-Nov-09 19:01N 32°08' W 080°49'0 0.0
2017-Nov-09 18:31N 32°08' W 080°49'0 0.0
2017-Nov-09 18:00N 32°08' W 080°49'0 0.0
2017-Nov-09 17:30N 32°08' W 080°49'0 0.0
2017-Nov-09 17:00N 32°08' W 080°49'0 0.0
2017-Nov-09 16:31N 32°08' W 080°49'0 0.0
2017-Nov-09 16:01N 32°08' W 080°49'0 0.0
2017-Nov-09 15:31N 32°08' W 080°49'0 0.0
2017-Nov-09 15:01N 32°08' W 080°49'0 0.0
2017-Nov-09 14:30N 32°08' W 080°49'0 0.0
2017-Nov-09 14:01N 32°08' W 080°49'0 0.0
2017-Nov-09 13:30N 32°08' W 080°49'0 0.0
2017-Nov-09 13:01N 32°08' W 080°49'0 0.0
2017-Nov-09 12:31N 32°08' W 080°49'0 0.0
2017-Nov-09 12:00N 32°08' W 080°49'0 0.0
2017-Nov-09 11:30N 32°08' W 080°49'0 0.0
2017-Nov-09 11:01N 32°08' W 080°49'0 0.0
2017-Nov-09 10:30N 32°08' W 080°49'0 0.0
2017-Nov-09 10:01N 32°08' W 080°49'0 0.0
2017-Nov-09 09:30N 32°08' W 080°49'0 0.0
2017-Nov-09 09:01N 32°08' W 080°49'0 0.0
2017-Nov-09 08:31N 32°08' W 080°49'0 0.0
2017-Nov-09 08:00N 32°08' W 080°49'0 0.0
2017-Nov-09 07:30N 32°08' W 080°49'0 0.0
2017-Nov-09 07:01N 32°08' W 080°49'0 0.0
2017-Nov-09 06:30N 32°08' W 080°49'0 0.0
2017-Nov-09 06:00N 32°08' W 080°49'0 0.0
2017-Nov-09 05:30N 32°08' W 080°49'0 0.0
2017-Nov-09 05:01N 32°08' W 080°49'0 0.0
2017-Nov-09 04:30N 32°08' W 080°49'0 0.0
2017-Nov-09 04:01N 32°08' W 080°49'0 0.0
2017-Nov-09 03:30N 32°08' W 080°49'0 0.0
2017-Nov-09 03:01N 32°08' W 080°49'0 0.0
2017-Nov-09 02:31N 32°08' W 080°49'0 0.0
2017-Nov-09 02:01N 32°08' W 080°49'0 0.0
2017-Nov-09 01:30N 32°08' W 080°49'0 0.0
2017-Nov-09 01:00N 32°08' W 080°49'0 0.0
2017-Nov-09 00:31N 32°08' W 080°49'0 0.0
2017-Nov-09 00:00N 32°08' W 080°49'0 0.0
2017-Nov-08 23:31N 32°08' W 080°49'0 0.0
2017-Nov-08 23:01N 32°08' W 080°49'0 1.0
2017-Nov-08 22:30N 32°08' W 080°50'4 7.1
2017-Nov-08 22:00N 32°08' W 080°54'3 5.6
2017-Nov-08 21:30N 32°05' W 080°55'3 6.7
2017-Nov-08 21:01N 32°05' W 080°59'5 9.2
2017-Nov-08 20:31N 32°05' W 081°05'5 9.3
2017-Nov-08 20:01N 32°08' W 081°08'1 2.2
2017-Nov-08 19:31N 32°07' W 081°08'1 2.6
2017-Nov-08 19:00N 32°06' W 081°07'1 2.8
2017-Nov-08 18:31N 32°05' W 081°06'2 3.2
2017-Nov-08 18:00N 32°05' W 081°04'2 3.8
2017-Nov-08 17:31N 32°05' W 081°02'2 3.5
2017-Nov-08 17:01N 32°05' W 080°60'2 3.9
2017-Nov-08 16:30N 32°05' W 080°58'1 2.5
2017-Nov-08 16:00N 32°05' W 080°56'1 2.9
2017-Nov-08 15:30N 32°05' W 080°55'1 2.3
2017-Nov-08 15:00N 32°06' W 080°54'2 3.0
2017-Nov-08 14:30N 32°08' W 080°53'2 4.8
2017-Nov-08 14:00N 32°09' W 080°51'2 3.3
2017-Nov-08 13:31N 32°08' W 080°49'0 0.1
2017-Nov-08 13:01N 32°08' W 080°49'0 0.0
2017-Nov-08 12:31N 32°08' W 080°49'0 0.1
2017-Nov-08 12:00N 32°08' W 080°49'0 0.0
2017-Nov-08 11:31N 32°08' W 080°49'0 0.0
2017-Nov-08 11:00N 32°08' W 080°49'0 0.0
2017-Nov-08 10:31N 32°08' W 080°49'0 0.0
2017-Nov-08 10:00N 32°08' W 080°49'0 0.0
2017-Nov-08 09:31N 32°08' W 080°49'0 0.0
2017-Nov-08 09:00N 32°08' W 080°49'0 0.0
2017-Nov-08 08:30N 32°08' W 080°49'0 0.0
2017-Nov-08 08:00N 32°08' W 080°49'0 0.0
2017-Nov-08 07:31N 32°08' W 080°49'0 0.0
2017-Nov-08 07:00N 32°08' W 080°49'0 0.0
2017-Nov-08 06:30N 32°08' W 080°49'0 0.0
2017-Nov-08 06:00N 32°08' W 080°49'0 0.0
2017-Nov-08 05:30N 32°08' W 080°49'0 0.0
2017-Nov-08 05:00N 32°08' W 080°49'0 0.0
2017-Nov-08 04:30N 32°08' W 080°49'0 0.0
2017-Nov-08 04:01N 32°08' W 080°49'0 0.0
2017-Nov-08 03:30N 32°08' W 080°49'0 0.0
2017-Nov-08 03:01N 32°08' W 080°49'0 0.0
2017-Nov-08 02:30N 32°08' W 080°49'0 0.0
2017-Nov-08 02:00N 32°08' W 080°49'0 0.0
2017-Nov-08 01:30N 32°08' W 080°49'0 0.0
2017-Nov-08 01:01N 32°08' W 080°49'0 0.0
2017-Nov-08 00:30N 32°08' W 080°49'0 0.0
2017-Nov-08 00:00N 32°08' W 080°49'0 0.0
2017-Nov-07 23:31N 32°08' W 080°49'0 0.0
2017-Nov-07 23:00N 32°08' W 080°49'0 0.0
2017-Nov-07 22:31N 32°08' W 080°49'0 0.0
2017-Nov-07 22:00N 32°08' W 080°49'3 6.0
2017-Nov-07 21:30N 32°05' W 080°49'0 0.6
2017-Nov-07 21:01N 32°05' W 080°49'0 0.0
2017-Nov-07 20:30N 32°05' W 080°49'0 0.0
2017-Nov-07 20:00N 32°05' W 080°49'0 0.0
2017-Nov-07 19:31N 32°05' W 080°49'0 0.0
2017-Nov-07 19:00N 32°05' W 080°49'0 0.0
2017-Nov-07 18:31N 32°05' W 080°49'1 1.2
2017-Nov-07 18:00N 32°05' W 080°49'3 5.3
2017-Nov-07 17:30N 32°08' W 080°49'0 0.0
2017-Nov-07 17:00N 32°08' W 080°49'0 0.0
2017-Nov-07 16:31N 32°08' W 080°49'0 0.0
2017-Nov-07 16:00N 32°08' W 080°49'2 3.5
2017-Nov-07 15:30N 32°09' W 080°51'3 6.6
2017-Nov-07 15:00N 32°07' W 080°54'3 6.9
2017-Nov-07 14:30N 32°05' W 080°57'4 7.1
2017-Nov-07 14:01N 32°06' W 081°01'4 7.2
2017-Nov-07 13:30N 32°05' W 081°05'1 2.2
2017-Nov-07 13:00N 32°06' W 081°06'3 7.0
2017-Nov-07 12:31N 32°05' W 081°02'3 6.9
2017-Nov-07 12:01N 32°04' W 080°58'3 5.3
2017-Nov-07 11:30N 32°05' W 080°55'2 4.6
2017-Nov-07 11:01N 32°07' W 080°54'3 5.9
2017-Nov-07 10:31N 32°09' W 080°51'2 2.9
2017-Nov-07 09:51N 32°08' W 080°49'0 0.0
2017-Nov-07 09:30N 32°08' W 080°49'0 0.0
2017-Nov-07 09:00N 32°08' W 080°49'0 0.0
2017-Nov-07 08:30N 32°08' W 080°49'0 0.0
2017-Nov-07 08:01N 32°08' W 080°49'0 0.0
2017-Nov-07 07:30N 32°08' W 080°49'0 0.0
2017-Nov-07 07:00N 32°08' W 080°49'0 0.0
2017-Nov-07 06:31N 32°08' W 080°49'0 0.0
2017-Nov-07 06:00N 32°08' W 080°49'0 0.0
2017-Nov-07 05:31N 32°08' W 080°49'0 0.0
2017-Nov-07 05:00N 32°08' W 080°49'0 0.0
2017-Nov-07 04:30N 32°08' W 080°49'0 0.0
2017-Nov-07 04:00N 32°08' W 080°49'0 0.0
2017-Nov-07 03:30N 32°08' W 080°49'0 0.0
2017-Nov-07 03:00N 32°08' W 080°49'0 0.0
2017-Nov-07 02:29N 32°08' W 080°49'0 0.0
2017-Nov-07 02:01N 32°08' W 080°49'0 0.0
2017-Nov-07 01:30N 32°08' W 080°49'0 0.0
2017-Nov-07 01:00N 32°08' W 080°49'0 0.0
2017-Nov-07 00:30N 32°08' W 080°49'0 0.0
2017-Nov-07 00:01N 32°08' W 080°49'0 0.0
2017-Nov-06 23:30N 32°08' W 080°49'0 0.0
2017-Nov-06 23:00N 32°08' W 080°49'3 5.2
2017-Nov-06 22:31N 32°05' W 080°50'1 1.8
2017-Nov-06 22:00N 32°05' W 080°49'3 5.2
2017-Nov-06 21:30N 32°07' W 080°50'1 1.6
2017-Nov-06 21:01N 32°08' W 080°49'0 0.0
2017-Nov-06 20:30N 32°08' W 080°49'  

Dump ship's entire track history